sensor_id;sensor_type;location;lat;lon;timestamp;P1;durP1;ratioP1;P2;durP2;ratioP2
58974;SDS011;44751;52.236;5.178;2022-10-31T04:03:13;14.95;;;10.13;;
58974;SDS011;44751;52.236;5.178;2022-10-31T04:05:40;17.45;;;10.13;;
58974;SDS011;44751;52.236;5.178;2022-10-31T04:08:12;16.17;;;10.27;;
58974;SDS011;44751;52.236;5.178;2022-10-31T04:10:43;19.23;;;11.75;;
58974;SDS011;44751;52.236;5.178;2022-10-31T04:13:14;19.00;;;11.18;;
58974;SDS011;44751;52.236;5.178;2022-10-31T04:15:45;14.93;;;10.25;;
58974;SDS011;44751;52.236;5.178;2022-10-31T04:18:14;15.32;;;10.50;;
58974;SDS011;44751;52.236;5.178;2022-10-31T04:20:40;17.05;;;10.65;;
58974;SDS011;44751;52.236;5.178;2022-10-31T04:23:17;16.92;;;11.98;;
58974;SDS011;44751;52.236;5.178;2022-10-31T04:25:45;18.92;;;11.15;;
58974;SDS011;44751;52.236;5.178;2022-10-31T04:28:12;16.90;;;11.55;;
58974;SDS011;44751;52.236;5.178;2022-10-31T04:30:38;17.63;;;11.05;;
58974;SDS011;44751;52.236;5.178;2022-10-31T04:33:04;17.80;;;9.98;;
58974;SDS011;44751;52.236;5.178;2022-10-31T04:35:31;16.10;;;10.50;;
58974;SDS011;44751;52.236;5.178;2022-10-31T04:37:58;16.42;;;10.13;;
58974;SDS011;44751;52.236;5.178;2022-10-31T04:40:24;17.58;;;10.98;;
58974;SDS011;44751;52.236;5.178;2022-10-31T04:42:53;18.92;;;10.77;;
58974;SDS011;44751;52.236;5.178;2022-10-31T04:45:19;19.33;;;10.50;;
58974;SDS011;44751;52.236;5.178;2022-10-31T04:47:46;16.85;;;11.75;;
58974;SDS011;44751;52.236;5.178;2022-10-31T04:50:12;20.00;;;11.05;;
58974;SDS011;44751;52.236;5.178;2022-10-31T04:52:42;13.75;;;10.32;;
58974;SDS011;44751;52.236;5.178;2022-10-31T04:55:10;16.52;;;10.68;;
58974;SDS011;44751;52.236;5.178;2022-10-31T04:57:47;16.98;;;10.52;;
58974;SDS011;44751;52.236;5.178;2022-10-31T05:00:15;17.58;;;11.13;;
58974;SDS011;44751;52.236;5.178;2022-10-31T05:02:44;18.20;;;11.38;;
58974;SDS011;44751;52.236;5.178;2022-10-31T05:05:14;17.55;;;11.00;;
58974;SDS011;44751;52.236;5.178;2022-10-31T05:07:42;17.25;;;10.52;;
58974;SDS011;44751;52.236;5.178;2022-10-31T05:10:10;13.43;;;9.85;;
58974;SDS011;44751;52.236;5.178;2022-10-31T05:12:38;15.85;;;10.52;;
58974;SDS011;44751;52.236;5.178;2022-10-31T05:15:15;15.48;;;10.00;;
58974;SDS011;44751;52.236;5.178;2022-10-31T05:17:42;15.23;;;10.50;;
58974;SDS011;44751;52.236;5.178;2022-10-31T05:20:09;14.88;;;10.63;;
58974;SDS011;44751;52.236;5.178;2022-10-31T05:22:41;14.98;;;10.60;;
58974;SDS011;44751;52.236;5.178;2022-10-31T05:25:15;16.65;;;10.73;;
58974;SDS011;44751;52.236;5.178;2022-10-31T05:27:43;18.73;;;12.23;;
58974;SDS011;44751;52.236;5.178;2022-10-31T05:30:12;16.48;;;11.30;;
58974;SDS011;44751;52.236;5.178;2022-10-31T05:32:42;17.75;;;11.70;;
58974;SDS011;44751;52.236;5.178;2022-10-31T05:35:14;16.98;;;11.68;;
58974;SDS011;44751;52.236;5.178;2022-10-31T05:37:42;21.90;;;12.50;;
58974;SDS011;44751;52.236;5.178;2022-10-31T05:40:10;18.02;;;12.65;;
58974;SDS011;44751;52.236;5.178;2022-10-31T05:42:38;17.10;;;12.15;;
58974;SDS011;44751;52.236;5.178;2022-10-31T05:45:08;19.85;;;12.98;;
58974;SDS011;44751;52.236;5.178;2022-10-31T05:47:35;19.77;;;12.07;;
58974;SDS011;44751;52.236;5.178;2022-10-31T05:50:02;16.65;;;11.48;;
58974;SDS011;44751;52.236;5.178;2022-10-31T05:52:29;20.30;;;11.43;;
58974;SDS011;44751;52.236;5.178;2022-10-31T05:54:55;16.17;;;10.93;;
58974;SDS011;44751;52.236;5.178;2022-10-31T05:57:24;15.18;;;11.50;;
58974;SDS011;44751;52.236;5.178;2022-10-31T05:59:51;25.40;;;20.95;;
58974;SDS011;44751;52.236;5.178;2022-10-31T06:02:18;25.85;;;21.92;;
58974;SDS011;44751;52.236;5.178;2022-10-31T06:04:46;25.33;;;20.65;;
58974;SDS011;44751;52.236;5.178;2022-10-31T06:07:14;23.63;;;18.60;;
58974;SDS011;44751;52.236;5.178;2022-10-31T06:09:45;22.75;;;19.02;;
58974;SDS011;44751;52.236;5.178;2022-10-31T06:12:11;22.52;;;16.98;;
58974;SDS011;44751;52.236;5.178;2022-10-31T06:14:38;20.83;;;16.13;;
58974;SDS011;44751;52.236;5.178;2022-10-31T06:17:04;21.27;;;15.65;;
58974;SDS011;44751;52.236;5.178;2022-10-31T06:19:30;22.67;;;15.45;;
58974;SDS011;44751;52.236;5.178;2022-10-31T06:21:57;22.10;;;15.98;;
58974;SDS011;44751;52.236;5.178;2022-10-31T06:24:23;22.83;;;15.48;;
58974;SDS011;44751;52.236;5.178;2022-10-31T06:26:49;19.85;;;15.52;;
58974;SDS011;44751;52.236;5.178;2022-10-31T06:29:16;23.23;;;15.23;;
58974;SDS011;44751;52.236;5.178;2022-10-31T06:31:42;22.27;;;17.98;;
58974;SDS011;44751;52.236;5.178;2022-10-31T06:34:08;24.85;;;18.02;;
58974;SDS011;44751;52.236;5.178;2022-10-31T06:36:35;26.05;;;17.73;;
58974;SDS011;44751;52.236;5.178;2022-10-31T06:39:04;21.67;;;17.17;;
58974;SDS011;44751;52.236;5.178;2022-10-31T06:41:30;24.48;;;18.20;;
58974;SDS011;44751;52.236;5.178;2022-10-31T06:43:57;29.48;;;21.38;;
58974;SDS011;44751;52.236;5.178;2022-10-31T06:46:23;29.40;;;21.35;;
58974;SDS011;44751;52.236;5.178;2022-10-31T06:48:50;29.25;;;19.45;;
58974;SDS011;44751;52.236;5.178;2022-10-31T06:51:16;35.55;;;21.95;;
58974;SDS011;44751;52.236;5.178;2022-10-31T06:53:42;31.38;;;19.50;;
58974;SDS011;44751;52.236;5.178;2022-10-31T06:56:09;25.35;;;16.83;;
58974;SDS011;44751;52.236;5.178;2022-10-31T06:58:35;22.92;;;15.82;;
58974;SDS011;44751;52.236;5.178;2022-10-31T07:01:02;30.25;;;16.05;;
58974;SDS011;44751;52.236;5.178;2022-10-31T07:03:31;25.67;;;16.88;;
58974;SDS011;44751;52.236;5.178;2022-10-31T07:05:59;25.67;;;14.80;;
58974;SDS011;44751;52.236;5.178;2022-10-31T07:08:26;21.45;;;13.95;;
58974;SDS011;44751;52.236;5.178;2022-10-31T07:10:53;23.02;;;14.10;;
58974;SDS011;44751;52.236;5.178;2022-10-31T07:13:23;19.75;;;13.23;;
58974;SDS011;44751;52.236;5.178;2022-10-31T07:15:51;21.85;;;14.48;;
58974;SDS011;44751;52.236;5.178;2022-10-31T07:18:19;21.90;;;13.52;;
58974;SDS011;44751;52.236;5.178;2022-10-31T07:20:46;21.23;;;14.15;;
58974;SDS011;44751;52.236;5.178;2022-10-31T07:23:13;20.60;;;13.48;;
58974;SDS011;44751;52.236;5.178;2022-10-31T07:25:40;21.98;;;14.02;;
58974;SDS011;44751;52.236;5.178;2022-10-31T07:28:09;25.08;;;13.88;;
58974;SDS011;44751;52.236;5.178;2022-10-31T07:30:36;19.75;;;14.20;;
58974;SDS011;44751;52.236;5.178;2022-10-31T07:33:04;23.27;;;13.98;;
58974;SDS011;44751;52.236;5.178;2022-10-31T07:35:31;20.38;;;13.23;;
58974;SDS011;44751;52.236;5.178;2022-10-31T07:38:06;19.85;;;13.73;;
58974;SDS011;44751;52.236;5.178;2022-10-31T07:40:37;21.30;;;14.02;;
58974;SDS011;44751;52.236;5.178;2022-10-31T07:43:03;25.02;;;14.43;;
58974;SDS011;44751;52.236;5.178;2022-10-31T07:45:30;21.10;;;14.27;;
58974;SDS011;44751;52.236;5.178;2022-10-31T07:47:57;27.13;;;14.60;;
58974;SDS011;44751;52.236;5.178;2022-10-31T07:50:28;22.48;;;13.65;;
58974;SDS011;44751;52.236;5.178;2022-10-31T07:53:02;23.13;;;14.80;;
58974;SDS011;44751;52.236;5.178;2022-10-31T07:55:34;27.20;;;15.82;;
58974;SDS011;44751;52.236;5.178;2022-10-31T08:00:32;26.38;;;15.13;;
58974;SDS011;44751;52.236;5.178;2022-10-31T08:03:00;22.42;;;14.65;;
58974;SDS011;44751;52.236;5.178;2022-10-31T08:05:32;26.80;;;16.70;;
58974;SDS011;44751;52.236;5.178;2022-10-31T08:07:59;22.45;;;15.23;;
58974;SDS011;44751;52.236;5.178;2022-10-31T08:10:27;24.02;;;16.27;;
58974;SDS011;44751;52.236;5.178;2022-10-31T08:12:54;22.80;;;15.23;;
58974;SDS011;44751;52.236;5.178;2022-10-31T08:15:24;21.73;;;14.43;;
58974;SDS011;44751;52.236;5.178;2022-10-31T08:17:51;25.95;;;16.83;;
58974;SDS011;44751;52.236;5.178;2022-10-31T08:20:22;24.25;;;15.88;;
58974;SDS011;44751;52.236;5.178;2022-10-31T08:22:56;24.48;;;16.20;;
58974;SDS011;44751;52.236;5.178;2022-10-31T08:25:23;23.95;;;15.45;;
58974;SDS011;44751;52.236;5.178;2022-10-31T08:27:52;26.63;;;18.90;;
58974;SDS011;44751;52.236;5.178;2022-10-31T08:30:23;25.38;;;16.67;;
58974;SDS011;44751;52.236;5.178;2022-10-31T08:35:50;24.17;;;16.63;;
58974;SDS011;44751;52.236;5.178;2022-10-31T08:38:16;23.38;;;14.55;;
58974;SDS011;44751;52.236;5.178;2022-10-31T08:40:48;24.92;;;17.45;;
58974;SDS011;44751;52.236;5.178;2022-10-31T08:43:19;25.63;;;16.50;;
58974;SDS011;44751;52.236;5.178;2022-10-31T08:45:47;25.35;;;17.02;;
58974;SDS011;44751;52.236;5.178;2022-10-31T08:48:15;26.83;;;16.80;;
58974;SDS011;44751;52.236;5.178;2022-10-31T08:50:43;27.52;;;16.88;;
58974;SDS011;44751;52.236;5.178;2022-10-31T08:53:13;23.42;;;15.18;;
58974;SDS011;44751;52.236;5.178;2022-10-31T08:55:41;27.65;;;16.65;;
58974;SDS011;44751;52.236;5.178;2022-10-31T08:58:10;25.98;;;16.73;;
58974;SDS011;44751;52.236;5.178;2022-10-31T09:00:40;26.02;;;16.42;;
58974;SDS011;44751;52.236;5.178;2022-10-31T09:03:14;26.23;;;18.23;;
58974;SDS011;44751;52.236;5.178;2022-10-31T09:05:43;30.05;;;17.35;;
58974;SDS011;44751;52.236;5.178;2022-10-31T09:08:10;30.92;;;19.08;;
58974;SDS011;44751;52.236;5.178;2022-10-31T09:10:40;30.33;;;19.30;;
58974;SDS011;44751;52.236;5.178;2022-10-31T09:13:11;36.20;;;20.05;;
58974;SDS011;44751;52.236;5.178;2022-10-31T09:15:40;30.25;;;19.38;;
58974;SDS011;44751;52.236;5.178;2022-10-31T09:18:09;29.70;;;19.60;;
58974;SDS011;44751;52.236;5.178;2022-10-31T09:20:37;33.65;;;19.77;;
58974;SDS011;44751;52.236;5.178;2022-10-31T09:23:06;32.55;;;21.05;;
58974;SDS011;44751;52.236;5.178;2022-10-31T09:25:36;33.88;;;21.25;;
58974;SDS011;44751;52.236;5.178;2022-10-31T09:28:03;30.88;;;20.90;;
58974;SDS011;44751;52.236;5.178;2022-10-31T09:30:31;33.75;;;20.48;;
58974;SDS011;44751;52.236;5.178;2022-10-31T09:33:03;33.50;;;21.05;;
58974;SDS011;44751;52.236;5.178;2022-10-31T09:35:31;36.33;;;22.17;;
58974;SDS011;44751;52.236;5.178;2022-10-31T09:37:59;35.33;;;21.88;;
58974;SDS011;44751;52.236;5.178;2022-10-31T09:40:42;32.47;;;20.48;;
58974;SDS011;44751;52.236;5.178;2022-10-31T09:51:55;33.17;;;20.88;;
58974;SDS011;44751;52.236;5.178;2022-10-31T09:54:35;34.58;;;20.42;;
58974;SDS011;44751;52.236;5.178;2022-10-31T09:57:03;34.17;;;20.77;;
58974;SDS011;44751;52.236;5.178;2022-10-31T09:59:37;33.08;;;19.48;;
58974;SDS011;44751;52.236;5.178;2022-10-31T10:02:27;30.13;;;20.05;;
58974;SDS011;44751;52.236;5.178;2022-10-31T10:05:14;31.48;;;19.38;;
58974;SDS011;44751;52.236;5.178;2022-10-31T10:07:57;30.23;;;18.40;;
58974;SDS011;44751;52.236;5.178;2022-10-31T10:13:36;32.50;;;20.08;;
58974;SDS011;44751;52.236;5.178;2022-10-31T10:16:11;29.95;;;19.17;;
58974;SDS011;44751;52.236;5.178;2022-10-31T10:26:51;27.90;;;17.67;;
58974;SDS011;44751;52.236;5.178;2022-10-31T10:29:42;26.20;;;17.55;;
58974;SDS011;44751;52.236;5.178;2022-10-31T10:32:24;26.25;;;15.73;;
58974;SDS011;44751;52.236;5.178;2022-10-31T10:35:07;22.80;;;15.57;;
58974;SDS011;44751;52.236;5.178;2022-10-31T10:37:43;31.17;;;15.60;;
58974;SDS011;44751;52.236;5.178;2022-10-31T10:43:12;23.90;;;14.90;;
58974;SDS011;44751;52.236;5.178;2022-10-31T10:59:25;15.85;;;10.40;;
58974;SDS011;44751;52.236;5.178;2022-10-31T11:01:52;15.52;;;10.20;;
58974;SDS011;44751;52.236;5.178;2022-10-31T11:06:59;13.98;;;9.98;;
58974;SDS011;44751;52.236;5.178;2022-10-31T11:09:29;21.05;;;11.40;;
58974;SDS011;44751;52.236;5.178;2022-10-31T11:11:55;18.73;;;10.43;;
58974;SDS011;44751;52.236;5.178;2022-10-31T11:14:23;17.02;;;11.57;;
58974;SDS011;44751;52.236;5.178;2022-10-31T11:16:55;20.08;;;12.25;;
58974;SDS011;44751;52.236;5.178;2022-10-31T11:19:35;19.17;;;11.77;;
58974;SDS011;44751;52.236;5.178;2022-10-31T11:22:06;24.85;;;13.50;;
58974;SDS011;44751;52.236;5.178;2022-10-31T11:24:42;19.45;;;12.27;;
58974;SDS011;44751;52.236;5.178;2022-10-31T11:29:38;21.23;;;13.23;;
58974;SDS011;44751;52.236;5.178;2022-10-31T11:32:04;22.10;;;13.38;;
58974;SDS011;44751;52.236;5.178;2022-10-31T11:34:32;20.15;;;13.25;;
58974;SDS011;44751;52.236;5.178;2022-10-31T11:37:12;20.17;;;14.10;;
58974;SDS011;44751;52.236;5.178;2022-10-31T11:39:42;21.52;;;13.98;;
58974;SDS011;44751;52.236;5.178;2022-10-31T11:42:23;20.42;;;13.15;;
58974;SDS011;44751;52.236;5.178;2022-10-31T11:44:54;22.00;;;14.55;;
58974;SDS011;44751;52.236;5.178;2022-10-31T11:47:26;29.30;;;16.45;;
58974;SDS011;44751;52.236;5.178;2022-10-31T11:49:57;23.00;;;14.85;;
58974;SDS011;44751;52.236;5.178;2022-10-31T11:52:28;24.13;;;14.63;;
58974;SDS011;44751;52.236;5.178;2022-10-31T11:55:01;24.77;;;15.15;;
58974;SDS011;44751;52.236;5.178;2022-10-31T12:00:24;25.85;;;15.05;;
58974;SDS011;44751;52.236;5.178;2022-10-31T12:03:10;24.48;;;15.68;;
58974;SDS011;44751;52.236;5.178;2022-10-31T12:08:36;23.20;;;14.55;;
58974;SDS011;44751;52.236;5.178;2022-10-31T12:13:52;24.40;;;15.80;;
58974;SDS011;44751;52.236;5.178;2022-10-31T12:16:30;27.77;;;17.48;;
58974;SDS011;44751;52.236;5.178;2022-10-31T12:24:29;31.85;;;17.88;;
58974;SDS011;44751;52.236;5.178;2022-10-31T12:27:22;34.90;;;18.63;;
58974;SDS011;44751;52.236;5.178;2022-10-31T12:35:14;30.05;;;18.73;;
58974;SDS011;44751;52.236;5.178;2022-10-31T12:37:52;31.67;;;18.10;;
58974;SDS011;44751;52.236;5.178;2022-10-31T12:43:29;32.10;;;18.35;;
58974;SDS011;44751;52.236;5.178;2022-10-31T12:45:58;35.70;;;20.67;;
58974;SDS011;44751;52.236;5.178;2022-10-31T12:51:15;34.83;;;21.58;;
58974;SDS011;44751;52.236;5.178;2022-10-31T12:53:55;38.65;;;21.42;;
58974;SDS011;44751;52.236;5.178;2022-10-31T12:56:58;34.60;;;19.83;;
58974;SDS011;44751;52.236;5.178;2022-10-31T13:07:27;36.00;;;20.70;;
58974;SDS011;44751;52.236;5.178;2022-10-31T13:12:38;41.65;;;22.63;;
58974;SDS011;44751;52.236;5.178;2022-10-31T13:15:15;39.17;;;22.17;;
58974;SDS011;44751;52.236;5.178;2022-10-31T13:17:46;34.35;;;20.60;;
58974;SDS011;44751;52.236;5.178;2022-10-31T13:22:52;41.78;;;22.63;;
58974;SDS011;44751;52.236;5.178;2022-10-31T13:25:24;35.92;;;21.27;;
58974;SDS011;44751;52.236;5.178;2022-10-31T13:27:56;36.95;;;20.83;;
58974;SDS011;44751;52.236;5.178;2022-10-31T13:30:43;36.08;;;20.80;;
58974;SDS011;44751;52.236;5.178;2022-10-31T13:33:17;36.60;;;19.88;;
58974;SDS011;44751;52.236;5.178;2022-10-31T13:36:06;39.15;;;21.13;;
58974;SDS011;44751;52.236;5.178;2022-10-31T13:44:23;32.03;;;18.35;;
58974;SDS011;44751;52.236;5.178;2022-10-31T13:46:52;33.88;;;19.30;;
58974;SDS011;44751;52.236;5.178;2022-10-31T13:52:05;37.67;;;19.85;;
58974;SDS011;44751;52.236;5.178;2022-10-31T13:54:33;37.70;;;19.48;;
58974;SDS011;44751;52.236;5.178;2022-10-31T13:57:00;35.88;;;19.23;;
58974;SDS011;44751;52.236;5.178;2022-10-31T13:59:27;33.03;;;18.67;;
58974;SDS011;44751;52.236;5.178;2022-10-31T14:02:00;32.58;;;18.90;;
58974;SDS011;44751;52.236;5.178;2022-10-31T14:04:38;35.35;;;19.05;;
58974;SDS011;44751;52.236;5.178;2022-10-31T14:07:15;35.50;;;19.48;;
58974;SDS011;44751;52.236;5.178;2022-10-31T14:12:40;38.03;;;19.90;;
58974;SDS011;44751;52.236;5.178;2022-10-31T14:17:46;36.45;;;19.35;;
58974;SDS011;44751;52.236;5.178;2022-10-31T14:22:45;37.63;;;19.63;;
58974;SDS011;44751;52.236;5.178;2022-10-31T14:28:17;36.08;;;18.75;;
58974;SDS011;44751;52.236;5.178;2022-10-31T14:30:53;37.25;;;20.60;;
58974;SDS011;44751;52.236;5.178;2022-10-31T14:33:22;35.80;;;20.38;;
58974;SDS011;44751;52.236;5.178;2022-10-31T14:35:57;35.22;;;20.08;;
58974;SDS011;44751;52.236;5.178;2022-10-31T14:38:39;36.95;;;19.10;;
58974;SDS011;44751;52.236;5.178;2022-10-31T14:49:37;34.45;;;19.85;;
58974;SDS011;44751;52.236;5.178;2022-10-31T14:52:14;36.83;;;18.63;;
58974;SDS011;44751;52.236;5.178;2022-10-31T14:54:48;33.45;;;18.65;;
58974;SDS011;44751;52.236;5.178;2022-10-31T14:57:23;40.03;;;19.65;;
58974;SDS011;44751;52.236;5.178;2022-10-31T15:00:04;35.70;;;19.00;;
58974;SDS011;44751;52.236;5.178;2022-10-31T15:02:36;35.65;;;18.48;;
58974;SDS011;44751;52.236;5.178;2022-10-31T15:05:31;34.80;;;17.70;;
58974;SDS011;44751;52.236;5.178;2022-10-31T15:08:00;31.02;;;17.27;;
58974;SDS011;44751;52.236;5.178;2022-10-31T15:10:31;31.67;;;18.45;;
58974;SDS011;44751;52.236;5.178;2022-10-31T15:13:09;37.50;;;18.20;;
58974;SDS011;44751;52.236;5.178;2022-10-31T15:15:43;32.03;;;18.92;;
58974;SDS011;44751;52.236;5.178;2022-10-31T15:18:18;35.00;;;18.88;;
58974;SDS011;44751;52.236;5.178;2022-10-31T15:20:48;29.75;;;17.92;;
58974;SDS011;44751;52.236;5.178;2022-10-31T15:23:17;35.00;;;18.67;;
58974;SDS011;44751;52.236;5.178;2022-10-31T15:25:57;35.47;;;19.73;;
58974;SDS011;44751;52.236;5.178;2022-10-31T15:28:25;37.25;;;19.58;;
58974;SDS011;44751;52.236;5.178;2022-10-31T15:30:53;29.80;;;17.67;;
58974;SDS011;44751;52.236;5.178;2022-10-31T15:33:23;32.20;;;18.75;;
58974;SDS011;44751;52.236;5.178;2022-10-31T15:36:00;32.28;;;18.77;;
58974;SDS011;44751;52.236;5.178;2022-10-31T15:38:28;31.10;;;18.80;;
58974;SDS011;44751;52.236;5.178;2022-10-31T15:41:01;65.40;;;32.38;;
58974;SDS011;44751;52.236;5.178;2022-10-31T15:43:32;63.22;;;34.83;;
58974;SDS011;44751;52.236;5.178;2022-10-31T15:46:02;50.50;;;32.63;;
58974;SDS011;44751;52.236;5.178;2022-10-31T15:48:35;53.13;;;37.58;;
58974;SDS011;44751;52.236;5.178;2022-10-31T15:51:03;45.28;;;30.83;;
58974;SDS011;44751;52.236;5.178;2022-10-31T15:53:33;41.03;;;24.30;;
58974;SDS011;44751;52.236;5.178;2022-10-31T15:56:07;34.03;;;20.80;;
58974;SDS011;44751;52.236;5.178;2022-10-31T15:58:44;44.00;;;24.75;;
58974;SDS011;44751;52.236;5.178;2022-10-31T16:04:36;171.68;;;90.63;;
58974;SDS011;44751;52.236;5.178;2022-10-31T16:07:02;70.57;;;43.08;;
58974;SDS011;44751;52.236;5.178;2022-10-31T16:12:18;48.40;;;27.23;;
58974;SDS011;44751;52.236;5.178;2022-10-31T16:14:46;42.22;;;25.92;;
58974;SDS011;44751;52.236;5.178;2022-10-31T16:17:13;46.92;;;27.38;;
58974;SDS011;44751;52.236;5.178;2022-10-31T16:20:04;54.63;;;31.40;;
58974;SDS011;44751;52.236;5.178;2022-10-31T16:22:34;49.03;;;30.67;;
58974;SDS011;44751;52.236;5.178;2022-10-31T16:27:32;48.55;;;27.17;;
58974;SDS011;44751;52.236;5.178;2022-10-31T16:30:02;42.67;;;25.67;;
58974;SDS011;44751;52.236;5.178;2022-10-31T16:32:53;39.35;;;21.77;;
58974;SDS011;44751;52.236;5.178;2022-10-31T16:38:02;37.47;;;20.92;;
58974;SDS011;44751;52.236;5.178;2022-10-31T16:40:30;38.05;;;22.58;;
58974;SDS011;44751;52.236;5.178;2022-10-31T16:42:58;41.65;;;21.02;;
58974;SDS011;44751;52.236;5.178;2022-10-31T16:45:26;36.58;;;20.88;;
58974;SDS011;44751;52.236;5.178;2022-10-31T16:48:05;35.80;;;19.88;;
58974;SDS011;44751;52.236;5.178;2022-10-31T16:50:36;31.88;;;19.00;;
58974;SDS011;44751;52.236;5.178;2022-10-31T16:53:03;39.95;;;21.50;;
58974;SDS011;44751;52.236;5.178;2022-10-31T16:55:32;38.03;;;23.10;;
58974;SDS011;44751;52.236;5.178;2022-10-31T16:58:00;38.22;;;22.05;;
58974;SDS011;44751;52.236;5.178;2022-10-31T17:00:27;35.30;;;22.08;;
58974;SDS011;44751;52.236;5.178;2022-10-31T17:02:55;39.72;;;24.15;;
58974;SDS011;44751;52.236;5.178;2022-10-31T17:05:26;37.80;;;21.38;;
58974;SDS011;44751;52.236;5.178;2022-10-31T17:07:55;40.00;;;19.88;;
58974;SDS011;44751;52.236;5.178;2022-10-31T17:10:22;36.83;;;20.90;;
58974;SDS011;44751;52.236;5.178;2022-10-31T17:12:49;33.60;;;18.75;;
58974;SDS011;44751;52.236;5.178;2022-10-31T17:15:18;38.25;;;19.85;;
58974;SDS011;44751;52.236;5.178;2022-10-31T17:17:47;36.35;;;19.92;;
58974;SDS011;44751;52.236;5.178;2022-10-31T17:22:52;35.65;;;20.52;;
58974;SDS011;44751;52.236;5.178;2022-10-31T17:25:20;42.88;;;22.67;;
58974;SDS011;44751;52.236;5.178;2022-10-31T17:27:49;42.92;;;23.63;;
58974;SDS011;44751;52.236;5.178;2022-10-31T17:30:16;38.42;;;21.63;;
58974;SDS011;44751;52.236;5.178;2022-10-31T17:32:44;42.40;;;21.08;;
58974;SDS011;44751;52.236;5.178;2022-10-31T17:35:12;41.90;;;22.40;;
58974;SDS011;44751;52.236;5.178;2022-10-31T17:37:39;44.67;;;22.85;;
58974;SDS011;44751;52.236;5.178;2022-10-31T17:40:08;41.75;;;23.38;;
58974;SDS011;44751;52.236;5.178;2022-10-31T17:42:38;39.72;;;20.20;;
58974;SDS011;44751;52.236;5.178;2022-10-31T17:45:05;38.47;;;21.38;;
58974;SDS011;44751;52.236;5.178;2022-10-31T17:47:33;42.28;;;21.75;;
58974;SDS011;44751;52.236;5.178;2022-10-31T17:50:00;37.63;;;21.95;;
58974;SDS011;44751;52.236;5.178;2022-10-31T17:52:27;45.00;;;23.92;;
58974;SDS011;44751;52.236;5.178;2022-10-31T17:54:53;41.83;;;22.85;;
58974;SDS011;44751;52.236;5.178;2022-10-31T17:57:19;37.63;;;21.55;;
58974;SDS011;44751;52.236;5.178;2022-10-31T17:59:46;41.45;;;22.10;;
58974;SDS011;44751;52.236;5.178;2022-10-31T18:02:15;39.85;;;22.02;;
58974;SDS011;44751;52.236;5.178;2022-10-31T18:04:41;40.42;;;22.85;;
58974;SDS011;44751;52.236;5.178;2022-10-31T18:07:08;41.13;;;23.20;;
58974;SDS011;44751;52.236;5.178;2022-10-31T18:09:34;46.53;;;24.67;;
58974;SDS011;44751;52.236;5.178;2022-10-31T18:12:00;43.42;;;23.63;;
58974;SDS011;44751;52.236;5.178;2022-10-31T18:14:27;45.28;;;22.75;;
58974;SDS011;44751;52.236;5.178;2022-10-31T18:16:53;39.65;;;23.27;;
58974;SDS011;44751;52.236;5.178;2022-10-31T18:19:20;45.08;;;24.10;;
58974;SDS011;44751;52.236;5.178;2022-10-31T18:21:46;43.20;;;25.17;;
58974;SDS011;44751;52.236;5.178;2022-10-31T18:24:12;41.83;;;22.63;;
58974;SDS011;44751;52.236;5.178;2022-10-31T18:26:39;46.72;;;24.27;;
58974;SDS011;44751;52.236;5.178;2022-10-31T18:29:05;42.53;;;24.52;;
58974;SDS011;44751;52.236;5.178;2022-10-31T18:31:33;46.75;;;25.33;;
58974;SDS011;44751;52.236;5.178;2022-10-31T18:33:59;43.47;;;24.88;;
58974;SDS011;44751;52.236;5.178;2022-10-31T18:36:25;46.58;;;25.63;;
58974;SDS011;44751;52.236;5.178;2022-10-31T18:38:54;40.90;;;24.10;;
58974;SDS011;44751;52.236;5.178;2022-10-31T18:41:21;41.85;;;24.48;;
58974;SDS011;44751;52.236;5.178;2022-10-31T18:43:47;45.83;;;26.77;;
58974;SDS011;44751;52.236;5.178;2022-10-31T18:46:15;42.85;;;24.10;;
58974;SDS011;44751;52.236;5.178;2022-10-31T18:48:42;51.17;;;26.08;;
58974;SDS011;44751;52.236;5.178;2022-10-31T18:51:10;48.55;;;23.98;;
58974;SDS011;44751;52.236;5.178;2022-10-31T18:53:38;47.40;;;26.48;;
58974;SDS011;44751;52.236;5.178;2022-10-31T18:56:08;45.38;;;24.55;;
58974;SDS011;44751;52.236;5.178;2022-10-31T18:58:36;48.45;;;26.48;;
58974;SDS011;44751;52.236;5.178;2022-10-31T19:01:06;47.78;;;27.08;;
58974;SDS011;44751;52.236;5.178;2022-10-31T19:03:33;51.33;;;28.65;;
58974;SDS011;44751;52.236;5.178;2022-10-31T19:06:03;56.65;;;29.55;;
58974;SDS011;44751;52.236;5.178;2022-10-31T19:08:31;55.92;;;31.75;;
58974;SDS011;44751;52.236;5.178;2022-10-31T19:11:02;48.80;;;27.90;;
58974;SDS011;44751;52.236;5.178;2022-10-31T19:13:38;49.58;;;27.48;;
58974;SDS011;44751;52.236;5.178;2022-10-31T19:16:12;52.20;;;31.33;;
58974;SDS011;44751;52.236;5.178;2022-10-31T19:18:40;58.55;;;32.90;;
58974;SDS011;44751;52.236;5.178;2022-10-31T19:21:11;50.97;;;29.48;;
58974;SDS011;44751;52.236;5.178;2022-10-31T19:23:43;50.33;;;27.92;;
58974;SDS011;44751;52.236;5.178;2022-10-31T19:26:10;48.67;;;26.70;;
58974;SDS011;44751;52.236;5.178;2022-10-31T19:28:37;49.55;;;28.38;;
58974;SDS011;44751;52.236;5.178;2022-10-31T19:31:05;52.75;;;30.25;;
58974;SDS011;44751;52.236;5.178;2022-10-31T19:33:32;45.88;;;27.45;;
58974;SDS011;44751;52.236;5.178;2022-10-31T19:36:00;41.47;;;24.55;;
58974;SDS011;44751;52.236;5.178;2022-10-31T19:38:32;49.63;;;24.90;;
58974;SDS011;44751;52.236;5.178;2022-10-31T19:41:01;38.58;;;23.10;;
58974;SDS011;44751;52.236;5.178;2022-10-31T19:43:34;51.42;;;28.17;;
58974;SDS011;44751;52.236;5.178;2022-10-31T19:46:02;55.10;;;27.80;;
58974;SDS011;44751;52.236;5.178;2022-10-31T19:48:29;39.28;;;22.38;;
58974;SDS011;44751;52.236;5.178;2022-10-31T19:51:00;37.40;;;19.52;;
58974;SDS011;44751;52.236;5.178;2022-10-31T19:53:28;35.55;;;20.63;;
58974;SDS011;44751;52.236;5.178;2022-10-31T19:55:56;35.38;;;19.33;;
58974;SDS011;44751;52.236;5.178;2022-10-31T19:58:23;34.38;;;17.10;;
58974;SDS011;44751;52.236;5.178;2022-10-31T20:00:50;27.02;;;15.73;;
58974;SDS011;44751;52.236;5.178;2022-10-31T20:03:16;27.58;;;15.43;;
58974;SDS011;44751;52.236;5.178;2022-10-31T20:05:43;27.83;;;15.38;;
58974;SDS011;44751;52.236;5.178;2022-10-31T20:08:12;25.45;;;14.80;;
58974;SDS011;44751;52.236;5.178;2022-10-31T20:10:41;23.73;;;12.70;;
58974;SDS011;44751;52.236;5.178;2022-10-31T20:13:18;25.35;;;12.00;;
58974;SDS011;44751;52.236;5.178;2022-10-31T20:15:44;22.05;;;12.85;;
58974;SDS011;44751;52.236;5.178;2022-10-31T20:18:19;23.90;;;11.85;;
58974;SDS011;44751;52.236;5.178;2022-10-31T20:20:46;23.90;;;12.27;;
58974;SDS011;44751;52.236;5.178;2022-10-31T20:23:13;18.80;;;10.95;;
58974;SDS011;44751;52.236;5.178;2022-10-31T20:25:45;21.98;;;11.07;;
58974;SDS011;44751;52.236;5.178;2022-10-31T20:28:13;16.15;;;9.85;;
58974;SDS011;44751;52.236;5.178;2022-10-31T20:30:39;20.67;;;9.25;;
58974;SDS011;44751;52.236;5.178;2022-10-31T20:33:06;19.90;;;9.95;;
58974;SDS011;44751;52.236;5.178;2022-10-31T20:35:36;18.10;;;8.98;;
58974;SDS011;44751;52.236;5.178;2022-10-31T20:38:03;16.75;;;8.27;;
58974;SDS011;44751;52.236;5.178;2022-10-31T20:40:30;16.90;;;8.30;;
58974;SDS011;44751;52.236;5.178;2022-10-31T20:42:57;13.43;;;7.68;;
58974;SDS011;44751;52.236;5.178;2022-10-31T20:45:24;16.30;;;8.07;;
58974;SDS011;44751;52.236;5.178;2022-10-31T20:47:50;18.90;;;7.40;;